createdAt,value
2023-05-19T00:01:15.392Z,12.10
2023-05-19T00:03:57.467Z,12.10
2023-05-19T00:06:25.177Z,12.10
2023-05-19T00:08:59.602Z,12.10
2023-05-19T00:11:26.939Z,12.10
2023-05-19T00:13:57.834Z,12.10
2023-05-19T00:16:25.600Z,12.10
2023-05-19T00:18:53.266Z,12.10
2023-05-19T00:21:20.630Z,12.10
2023-05-19T00:28:41.424Z,12.10
2023-05-19T00:31:08.078Z,12.10
2023-05-19T00:36:03.405Z,12.00
2023-05-19T00:38:33.623Z,12.00
2023-05-19T00:41:00.704Z,12.00
2023-05-19T00:43:27.477Z,12.00
2023-05-19T00:45:54.120Z,11.90
2023-05-19T00:48:21.095Z,11.90
2023-05-19T00:50:48.399Z,11.90
2023-05-19T00:53:17.079Z,11.70
2023-05-19T00:55:45.183Z,11.80
2023-05-19T00:58:12.790Z,11.80
2023-05-19T01:03:11.239Z,11.80
2023-05-19T01:10:32.778Z,11.90
2023-05-19T01:12:59.818Z,11.90
2023-05-19T01:15:26.990Z,11.70
2023-05-19T01:17:56.158Z,11.80
2023-05-19T01:20:29.352Z,11.80
2023-05-19T01:23:11.006Z,11.80
2023-05-19T01:25:48.453Z,11.70
2023-05-19T01:28:15.057Z,11.80
2023-05-19T01:30:46.233Z,11.80
2023-05-19T01:33:14.263Z,11.80
2023-05-19T01:35:42.771Z,11.80
2023-05-19T01:38:10.525Z,11.80
2023-05-19T01:40:38.262Z,11.70
2023-05-19T01:43:06.367Z,11.70
2023-05-19T01:45:33.916Z,11.70
2023-05-19T01:48:01.852Z,11.60
2023-05-19T01:50:29.187Z,11.60
2023-05-19T01:52:56.082Z,11.60
2023-05-19T01:55:25.698Z,11.60
2023-05-19T01:58:00.271Z,11.60
2023-05-19T02:00:32.003Z,11.60
2023-05-19T02:03:08.256Z,11.60
2023-05-19T02:05:38.252Z,11.60
2023-05-19T02:08:07.826Z,11.50
2023-05-19T02:10:36.196Z,11.50
2023-05-19T02:13:05.870Z,11.50
2023-05-19T02:15:38.944Z,11.50
2023-05-19T02:18:06.250Z,11.50
2023-05-19T02:20:33.215Z,11.50
2023-05-19T02:23:00.187Z,11.50
2023-05-19T02:25:27.219Z,11.50
2023-05-19T02:27:54.582Z,11.50
2023-05-19T02:30:21.183Z,11.50
2023-05-19T02:40:09.474Z,11.50
2023-05-19T02:45:03.316Z,11.50
2023-05-19T02:49:57.090Z,11.40
2023-05-19T02:52:23.715Z,11.30
2023-05-19T03:02:12.205Z,11.30
2023-05-19T03:04:41.984Z,11.30
2023-05-19T03:07:13.398Z,11.20
2023-05-19T03:09:40.128Z,11.30
2023-05-19T03:12:07.680Z,11.40
2023-05-19T03:21:56.477Z,11.50
2023-05-19T03:24:23.164Z,11.50
2023-05-19T03:26:50.380Z,11.40
2023-05-19T03:29:17.054Z,11.50
2023-05-19T03:31:43.674Z,11.50
2023-05-19T03:34:10.260Z,11.50
2023-05-19T03:36:39.353Z,11.50
2023-05-19T03:39:06.894Z,11.40
2023-05-19T03:41:33.530Z,11.40
2023-05-19T03:44:00.178Z,11.40
2023-05-19T03:48:53.882Z,11.40
2023-05-19T04:06:08.282Z,11.60
2023-05-19T04:08:34.932Z,11.60
2023-05-19T04:13:28.544Z,11.50
2023-05-19T04:15:55.210Z,11.60
2023-05-19T04:20:49.121Z,11.80
2023-05-19T04:23:15.715Z,11.80
2023-05-19T04:25:42.457Z,11.80
2023-05-19T04:28:09.086Z,11.90
2023-05-19T04:37:58.649Z,12.20
2023-05-19T04:40:25.225Z,12.20
2023-05-19T04:42:52.418Z,12.20
2023-05-19T04:45:19.067Z,12.20
2023-05-19T05:02:36.192Z,13.00
2023-05-19T05:05:04.381Z,13.00
2023-05-19T05:07:32.482Z,13.00
2023-05-19T05:09:59.736Z,13.00
2023-05-19T05:12:26.646Z,13.10
2023-05-19T05:14:53.398Z,13.20
2023-05-19T05:19:48.428Z,13.40
2023-05-19T05:22:15.311Z,13.20
2023-05-19T05:27:10.155Z,13.10
2023-05-19T05:32:04.536Z,13.00
2023-05-19T05:41:54.588Z,13.20
2023-05-19T05:46:48.692Z,13.40
2023-05-19T05:54:16.376Z,13.80
2023-05-19T05:56:43.079Z,13.90
2023-05-19T05:59:09.776Z,14.00
2023-05-19T06:01:36.680Z,14.00
2023-05-19T06:06:31.134Z,14.00
2023-05-19T06:08:57.725Z,14.10
2023-05-19T06:21:13.405Z,14.60
2023-05-19T06:23:40.919Z,14.50
2023-05-19T06:38:23.209Z,15.00
2023-05-19T06:40:49.845Z,15.10
2023-05-19T07:07:49.494Z,15.90
2023-05-19T07:10:16.471Z,16.00
2023-05-19T07:12:43.151Z,16.20
2023-05-19T07:15:09.923Z,16.40
2023-05-19T07:17:36.596Z,16.60
2023-05-19T07:20:06.641Z,16.70
2023-05-19T07:22:35.223Z,17.00
2023-05-19T07:25:01.871Z,18.40
2023-05-19T07:27:28.447Z,19.30
2023-05-19T07:29:55.011Z,20.20
2023-05-19T07:32:21.658Z,20.70
2023-05-19T07:34:48.442Z,20.40
2023-05-19T07:37:16.046Z,20.50
2023-05-19T07:39:42.671Z,20.90
2023-05-19T07:42:09.251Z,21.10
2023-05-19T07:44:35.899Z,21.40
2023-05-19T07:47:02.562Z,21.60
2023-05-19T07:49:29.436Z,21.50
2023-05-19T07:51:56.030Z,21.50
2023-05-19T07:54:22.648Z,22.00
2023-05-19T07:56:49.359Z,22.30
2023-05-19T07:59:16.196Z,23.10
2023-05-19T08:01:42.845Z,24.10
2023-05-19T08:04:12.711Z,24.30
2023-05-19T08:06:40.186Z,23.70
2023-05-19T08:09:06.802Z,23.30
2023-05-19T08:11:33.520Z,22.80
2023-05-19T08:14:00.379Z,22.70
2023-05-19T08:16:27.058Z,21.80
2023-05-19T08:18:54.934Z,20.80
2023-05-19T08:21:21.781Z,20.50
2023-05-19T08:23:48.384Z,20.30
2023-05-19T08:26:15.367Z,20.00
2023-05-19T08:28:41.957Z,19.70
2023-05-19T08:31:08.617Z,19.60
2023-05-19T08:33:35.447Z,19.20
2023-05-19T08:36:02.272Z,20.30
2023-05-19T08:38:28.939Z,19.50
2023-05-19T08:40:56.254Z,19.20
2023-05-19T08:43:22.884Z,18.80
2023-05-19T08:45:49.991Z,18.70
2023-05-19T08:48:17.310Z,18.90
2023-05-19T08:50:47.373Z,19.00
2023-05-19T08:53:33.204Z,19.00
2023-05-19T08:56:20.000Z,18.90
2023-05-19T08:58:48.789Z,19.10
2023-05-19T09:01:18.188Z,19.30
2023-05-19T09:03:45.717Z,19.30
2023-05-19T09:06:13.101Z,19.40
2023-05-19T09:08:40.175Z,19.70
2023-05-19T09:11:07.250Z,19.60
2023-05-19T09:13:33.911Z,19.50
2023-05-19T09:16:01.979Z,19.40
2023-05-19T09:18:28.941Z,19.30
2023-05-19T09:21:00.287Z,19.20
2023-05-19T09:23:29.451Z,19.30
2023-05-19T09:25:57.068Z,19.50
2023-05-19T09:28:25.206Z,19.10
2023-05-19T09:30:58.719Z,19.00
2023-05-19T09:33:25.980Z,19.10
2023-05-19T09:35:54.152Z,19.10
2023-05-19T09:38:21.372Z,19.30
2023-05-19T09:40:48.687Z,19.40
2023-05-19T09:43:15.819Z,19.50
2023-05-19T09:45:42.570Z,19.60
2023-05-19T09:48:09.399Z,19.70
2023-05-19T09:50:36.355Z,19.50
2023-05-19T09:53:03.803Z,19.80
2023-05-19T09:55:30.846Z,19.60
2023-05-19T09:57:57.771Z,19.80
2023-05-19T10:00:25.322Z,19.80
2023-05-19T10:02:52.891Z,19.90
2023-05-19T10:05:20.562Z,20.10
2023-05-19T10:07:49.044Z,20.30
2023-05-19T10:10:15.785Z,20.40
2023-05-19T10:12:42.524Z,20.60
2023-05-19T10:15:10.234Z,20.70
2023-05-19T10:17:40.706Z,20.80
2023-05-19T10:20:14.220Z,21.10
2023-05-19T10:22:44.623Z,21.50
2023-05-19T10:25:13.361Z,21.80
2023-05-19T10:27:44.679Z,21.80
2023-05-19T10:30:16.728Z,22.20
2023-05-19T10:32:44.436Z,22.60
2023-05-19T10:35:11.001Z,22.60
2023-05-19T10:37:37.715Z,22.60
2023-05-19T10:40:10.866Z,22.60
2023-05-19T10:42:44.844Z,22.10
2023-05-19T10:45:22.288Z,21.70
2023-05-19T10:47:51.039Z,22.00
2023-05-19T10:50:17.897Z,22.50
2023-05-19T10:52:44.731Z,22.70
2023-05-19T10:55:17.607Z,22.50
2023-05-19T10:58:00.451Z,22.50
2023-05-19T11:00:28.485Z,22.60
2023-05-19T11:03:11.613Z,22.70
2023-05-19T11:05:38.301Z,22.60
2023-05-19T11:08:07.758Z,22.50
2023-05-19T11:10:34.550Z,22.10
2023-05-19T11:13:01.166Z,22.10
2023-05-19T11:15:28.173Z,22.10
2023-05-19T11:17:55.185Z,22.20
2023-05-19T11:20:21.793Z,22.20
2023-05-19T11:23:03.782Z,22.40
2023-05-19T11:25:41.287Z,22.50
2023-05-19T11:28:08.434Z,22.40
2023-05-19T11:30:35.030Z,22.50
2023-05-19T11:33:01.795Z,22.60
2023-05-19T11:35:29.548Z,23.00
2023-05-19T11:37:56.398Z,23.10
2023-05-19T11:40:23.129Z,23.50
2023-05-19T11:42:49.753Z,24.10
2023-05-19T11:45:16.686Z,24.50
2023-05-19T11:48:00.256Z,24.70
2023-05-19T11:50:28.882Z,25.40
2023-05-19T11:52:56.146Z,26.20
2023-05-19T11:55:22.881Z,26.40
2023-05-19T11:58:03.824Z,26.60
2023-05-19T12:00:37.259Z,26.60
2023-05-19T12:03:04.165Z,26.50
2023-05-19T12:05:34.423Z,26.90
2023-05-19T12:08:02.824Z,27.20
2023-05-19T12:10:30.771Z,27.10
2023-05-19T12:12:58.493Z,26.80
2023-05-19T12:15:25.541Z,26.90
2023-05-19T12:18:01.761Z,27.30
2023-05-19T12:20:29.073Z,25.90
2023-05-19T12:22:56.250Z,27.80
2023-05-19T12:25:23.503Z,27.80
2023-05-19T12:27:52.654Z,27.90
2023-05-19T12:30:25.052Z,28.10
2023-05-19T12:32:53.853Z,27.70
2023-05-19T12:35:20.578Z,26.60
2023-05-19T12:37:49.128Z,26.90
2023-05-19T12:40:16.756Z,27.60
2023-05-19T12:42:46.410Z,28.20
2023-05-19T12:45:13.061Z,28.00
2023-05-19T12:47:39.777Z,27.30
2023-05-19T12:50:10.312Z,26.50
2023-05-19T12:52:44.281Z,26.00
2023-05-19T12:55:11.919Z,25.60
2023-05-19T12:57:39.269Z,25.40
2023-05-19T13:00:10.157Z,25.50
2023-05-19T13:02:55.199Z,25.40
2023-05-19T13:05:22.685Z,26.60
2023-05-19T13:07:59.545Z,27.40
2023-05-19T13:10:29.563Z,27.90
2023-05-19T13:12:56.227Z,28.40
2023-05-19T13:15:24.403Z,28.40
2023-05-19T13:17:51.452Z,28.50
2023-05-19T13:20:18.140Z,28.90
2023-05-19T13:22:44.823Z,29.60
2023-05-19T13:25:11.503Z,30.00
2023-05-19T13:27:38.174Z,29.40
2023-05-19T13:30:05.388Z,28.30
2023-05-19T13:32:32.118Z,27.90
2023-05-19T13:34:59.210Z,27.90
2023-05-19T13:37:25.933Z,27.80
2023-05-19T13:39:52.935Z,27.10
2023-05-19T13:42:19.537Z,26.30
2023-05-19T13:44:46.542Z,26.80
2023-05-19T13:47:13.558Z,26.40
2023-05-19T13:49:41.257Z,25.60
2023-05-19T13:52:07.906Z,24.90
2023-05-19T13:54:34.964Z,24.20
2023-05-19T13:57:01.604Z,24.00
2023-05-19T13:59:28.461Z,23.90
2023-05-19T14:01:55.188Z,23.70
2023-05-19T14:04:21.926Z,23.80
2023-05-19T14:06:48.668Z,24.20
2023-05-19T14:09:15.943Z,24.40
2023-05-19T14:11:42.794Z,24.20
2023-05-19T14:14:11.244Z,24.40
2023-05-19T14:16:39.056Z,24.10
2023-05-19T14:19:05.749Z,23.60
2023-05-19T14:21:32.892Z,23.80
2023-05-19T14:23:59.618Z,24.00
2023-05-19T14:26:28.582Z,24.20
2023-05-19T14:28:57.051Z,24.40
2023-05-19T14:31:23.824Z,24.30
2023-05-19T14:33:51.240Z,24.40
2023-05-19T14:36:18.242Z,24.20
2023-05-19T14:38:44.943Z,24.10
2023-05-19T14:41:11.724Z,24.10
2023-05-19T14:43:38.558Z,24.20
2023-05-19T14:46:05.160Z,23.90
2023-05-19T14:48:32.030Z,23.80
2023-05-19T14:50:58.635Z,24.10
2023-05-19T14:53:25.398Z,24.10
2023-05-19T14:55:52.095Z,24.00
2023-05-19T14:58:28.254Z,23.90
2023-05-19T15:00:57.432Z,24.00
2023-05-19T15:03:24.339Z,24.00
2023-05-19T15:05:51.429Z,23.90
2023-05-19T15:08:18.229Z,24.00
2023-05-19T15:10:48.216Z,23.70
2023-05-19T15:13:14.800Z,23.60
2023-05-19T15:15:41.392Z,23.40
2023-05-19T15:18:08.075Z,23.20
2023-05-19T15:20:35.012Z,23.10
2023-05-19T15:23:01.829Z,23.00
2023-05-19T15:25:28.460Z,23.10
2023-05-19T15:27:55.129Z,23.10
2023-05-19T15:30:21.795Z,23.00
2023-05-19T15:32:48.478Z,22.70
2023-05-19T15:35:15.194Z,22.20
2023-05-19T15:37:41.967Z,22.10
2023-05-19T15:40:08.953Z,22.00
2023-05-19T15:42:35.744Z,22.00
2023-05-19T15:45:02.579Z,22.10
2023-05-19T15:47:29.510Z,22.20
2023-05-19T15:49:56.121Z,20.60
2023-05-19T15:52:22.772Z,21.80
2023-05-19T15:54:49.412Z,21.80
2023-05-19T15:57:16.075Z,21.60
2023-05-19T15:59:42.723Z,21.30
2023-05-19T16:02:09.497Z,21.10
2023-05-19T16:04:37.672Z,21.20
2023-05-19T16:07:04.380Z,21.30
2023-05-19T16:09:30.948Z,21.10
2023-05-19T16:11:57.634Z,21.20
2023-05-19T16:14:24.533Z,21.30
2023-05-19T16:16:51.501Z,21.20
2023-05-19T16:19:19.127Z,21.60
2023-05-19T16:21:46.615Z,21.10
2023-05-19T16:24:13.233Z,20.40
2023-05-19T16:26:39.860Z,20.70
2023-05-19T16:29:06.537Z,20.70
2023-05-19T16:31:33.232Z,18.00
2023-05-19T16:33:59.903Z,20.50
2023-05-19T16:36:26.628Z,20.50
2023-05-19T16:38:54.180Z,20.40
2023-05-19T16:41:21.663Z,20.30
2023-05-19T16:43:48.309Z,20.30
2023-05-19T16:46:14.944Z,20.20
2023-05-19T16:48:42.056Z,18.80
2023-05-19T16:51:08.852Z,20.10
2023-05-19T16:53:36.371Z,20.00
2023-05-19T16:56:03.132Z,19.90
2023-05-19T16:58:30.908Z,19.80
2023-05-19T17:00:57.866Z,19.80
2023-05-19T17:03:24.792Z,19.60
2023-05-19T17:05:52.420Z,19.60
2023-05-19T17:08:19.021Z,19.50
2023-05-19T17:10:47.486Z,19.40
2023-05-19T17:13:14.219Z,19.40
2023-05-19T17:15:43.074Z,19.20
2023-05-19T17:18:12.123Z,19.20
2023-05-19T17:20:38.716Z,19.20
2023-05-19T17:23:06.246Z,19.20
2023-05-19T17:25:32.904Z,19.10
2023-05-19T17:27:59.515Z,19.10
2023-05-19T17:30:26.099Z,18.90
2023-05-19T17:32:52.782Z,18.90
2023-05-19T17:35:19.610Z,18.80
2023-05-19T17:37:46.561Z,20.40
2023-05-19T17:40:13.398Z,18.70
2023-05-19T17:42:39.988Z,18.70
2023-05-19T17:45:07.614Z,18.60
2023-05-19T17:47:34.426Z,18.30
2023-05-19T17:50:01.106Z,18.70
2023-05-19T17:52:28.205Z,18.60
2023-05-19T17:54:55.190Z,18.50
2023-05-19T17:57:24.579Z,18.60
2023-05-19T17:59:51.320Z,18.50
2023-05-19T18:02:18.714Z,18.50
2023-05-19T18:04:45.677Z,18.40
2023-05-19T18:07:13.876Z,18.40
2023-05-19T18:09:43.501Z,18.30
2023-05-19T18:12:10.059Z,18.30
2023-05-19T18:14:36.674Z,18.30
2023-05-19T18:17:03.610Z,18.20
2023-05-19T18:19:30.376Z,18.30
2023-05-19T18:21:56.976Z,18.30
2023-05-19T18:24:23.597Z,18.30
2023-05-19T18:26:50.234Z,18.30
2023-05-19T18:29:16.893Z,18.30
2023-05-19T18:31:43.846Z,18.30
2023-05-19T18:34:10.558Z,18.30
2023-05-19T18:36:37.278Z,18.20
2023-05-19T18:39:04.613Z,18.20
2023-05-19T18:41:32.032Z,18.20
2023-05-19T18:43:58.666Z,18.20
2023-05-19T18:46:26.431Z,18.00
2023-05-19T18:48:53.123Z,18.00
2023-05-19T18:51:21.431Z,17.90
2023-05-19T18:53:50.086Z,17.70
2023-05-19T18:56:27.068Z,17.90
2023-05-19T18:58:54.294Z,17.80
2023-05-19T19:01:21.348Z,17.70
2023-05-19T19:03:49.252Z,17.70
2023-05-19T19:06:20.635Z,17.60
2023-05-19T19:08:47.487Z,17.50
2023-05-19T19:11:14.067Z,17.50
2023-05-19T19:13:40.841Z,17.30
2023-05-19T19:16:07.483Z,17.30
2023-05-19T19:18:36.219Z,17.20
2023-05-19T19:21:05.317Z,17.10
2023-05-19T19:23:31.966Z,17.10
2023-05-19T19:25:58.606Z,17.00
2023-05-19T19:28:25.232Z,17.10
2023-05-19T19:30:51.870Z,16.90
2023-05-19T19:33:18.743Z,16.90
2023-05-19T19:35:48.250Z,16.80
2023-05-19T19:38:14.955Z,16.70
2023-05-19T19:40:41.582Z,16.70
2023-05-19T19:43:08.188Z,16.70
2023-05-19T19:45:36.284Z,16.60
2023-05-19T19:48:02.881Z,16.60
2023-05-19T19:50:29.504Z,16.50
2023-05-19T19:52:56.232Z,16.50
2023-05-19T19:55:22.890Z,16.50
2023-05-19T19:57:51.074Z,16.40
2023-05-19T20:00:18.226Z,16.40
2023-05-19T20:03:02.937Z,16.40
2023-05-19T20:05:31.370Z,16.30
2023-05-19T20:07:57.949Z,16.40
2023-05-19T20:10:24.591Z,16.40
2023-05-19T20:12:51.765Z,16.30
2023-05-19T20:15:18.570Z,16.40
2023-05-19T20:17:46.163Z,16.40
2023-05-19T20:20:13.056Z,16.30
2023-05-19T20:22:40.008Z,16.20
2023-05-19T20:25:06.921Z,16.20
2023-05-19T20:27:33.707Z,16.20
2023-05-19T20:30:00.688Z,16.10
2023-05-19T20:32:27.327Z,16.10
2023-05-19T20:34:54.031Z,16.00
2023-05-19T20:37:22.061Z,16.00
2023-05-19T20:39:48.920Z,15.90
2023-05-19T20:42:15.560Z,15.90
2023-05-19T20:44:42.526Z,15.80
2023-05-19T20:47:09.382Z,15.80
2023-05-19T20:49:35.958Z,15.70
2023-05-19T20:52:02.626Z,17.80
2023-05-19T20:54:29.268Z,15.60
2023-05-19T20:56:56.005Z,15.60
2023-05-19T20:59:22.724Z,15.50
2023-05-19T21:01:49.683Z,15.50
2023-05-19T21:04:17.068Z,16.70
2023-05-19T21:06:44.104Z,15.50
2023-05-19T21:09:10.882Z,15.50
2023-05-19T21:11:37.536Z,15.40
2023-05-19T21:14:04.390Z,15.30
2023-05-19T21:16:31.463Z,15.30
2023-05-19T21:18:58.525Z,15.40
2023-05-19T21:21:25.335Z,15.20
2023-05-19T21:23:52.020Z,15.10
2023-05-19T21:26:18.640Z,15.10
2023-05-19T21:28:45.420Z,14.80
2023-05-19T21:31:12.089Z,15.10
2023-05-19T21:33:38.747Z,15.10
2023-05-19T21:36:05.842Z,15.00
2023-05-19T21:38:32.539Z,15.00
2023-05-19T21:40:59.159Z,15.00
2023-05-19T21:43:26.468Z,15.00
2023-05-19T21:45:53.070Z,14.80
2023-05-19T21:48:19.777Z,14.80
2023-05-19T21:50:46.435Z,14.80
2023-05-19T21:53:13.007Z,14.80
2023-05-19T21:55:39.637Z,14.70
2023-05-19T21:58:06.253Z,14.60
2023-05-19T22:00:33.146Z,14.60
2023-05-19T22:03:00.224Z,14.60
2023-05-19T22:05:28.983Z,14.60
2023-05-19T22:07:55.796Z,14.60
2023-05-19T22:10:22.459Z,14.60
2023-05-19T22:12:49.072Z,14.60
2023-05-19T22:15:15.895Z,14.60
2023-05-19T22:17:42.721Z,14.60
2023-05-19T22:20:09.571Z,13.80
2023-05-19T22:22:36.438Z,14.70
2023-05-19T22:25:03.673Z,14.60
2023-05-19T22:27:30.697Z,14.70
2023-05-19T22:29:59.579Z,14.70
2023-05-19T22:32:26.288Z,14.70
2023-05-19T22:34:53.052Z,14.60
2023-05-19T22:37:20.950Z,14.70
2023-05-19T22:39:47.578Z,14.70
2023-05-19T22:42:14.527Z,14.70
2023-05-19T22:44:41.105Z,14.70
2023-05-19T22:47:13.276Z,14.70
2023-05-19T22:49:40.465Z,14.70
2023-05-19T22:52:08.863Z,14.70
2023-05-19T22:54:35.560Z,14.70
2023-05-19T22:57:03.315Z,14.70
2023-05-19T22:59:30.011Z,14.80
2023-05-19T23:01:56.687Z,14.70
2023-05-19T23:04:23.334Z,14.70
2023-05-19T23:06:50.389Z,14.70
2023-05-19T23:09:17.932Z,14.70
2023-05-19T23:11:44.753Z,14.70
2023-05-19T23:14:11.661Z,14.90
2023-05-19T23:16:38.419Z,14.70
2023-05-19T23:19:05.187Z,14.70
2023-05-19T23:21:32.476Z,14.70
2023-05-19T23:23:59.549Z,14.70
2023-05-19T23:26:26.905Z,14.70
2023-05-19T23:28:53.553Z,14.70
2023-05-19T23:31:20.274Z,14.70
2023-05-19T23:33:46.971Z,14.70
2023-05-19T23:36:13.637Z,14.70
2023-05-19T23:38:40.254Z,14.80
2023-05-19T23:41:07.025Z,14.70
2023-05-19T23:43:33.661Z,14.80
2023-05-19T23:46:00.781Z,14.80
2023-05-19T23:48:28.339Z,14.70
2023-05-19T23:50:55.217Z,14.70
2023-05-19T23:53:21.886Z,14.90
2023-05-19T23:55:48.491Z,14.70
2023-05-19T23:58:15.935Z,14.80
